sensor_id;sensor_type;location;lat;lon;timestamp;pressure;altitude;pressure_sealevel;temperature;humidity
80945;BME280;70400;50.934;11.590;2023-09-30T00:00:21;100722.22;;;16.41;77.36
80945;BME280;70400;50.934;11.590;2023-09-30T00:01:11;100721.53;;;16.31;77.35
80945;BME280;70400;50.934;11.590;2023-09-30T00:02:05;100723.72;;;16.43;77.37
80945;BME280;70400;50.934;11.590;2023-09-30T00:02:56;100720.22;;;16.43;77.64
80945;BME280;70400;50.934;11.590;2023-09-30T00:03:47;100727.41;;;16.50;78.01
80945;BME280;70400;50.934;11.590;2023-09-30T00:04:38;100730.19;;;16.41;76.92
80945;BME280;70400;50.934;11.590;2023-09-30T00:05:30;100735.38;;;16.42;78.11
80945;BME280;70400;50.934;11.590;2023-09-30T00:06:20;100736.53;;;16.40;77.67
80945;BME280;70400;50.934;11.590;2023-09-30T00:07:11;100739.88;;;16.42;76.66
80945;BME280;70400;50.934;11.590;2023-09-30T00:08:03;100740.00;;;16.40;75.97
80945;BME280;70400;50.934;11.590;2023-09-30T00:08:56;100748.53;;;16.44;77.01
80945;BME280;70400;50.934;11.590;2023-09-30T00:09:48;100746.00;;;16.34;76.68
80945;BME280;70400;50.934;11.590;2023-09-30T00:10:39;100741.84;;;16.32;75.78
80945;BME280;70400;50.934;11.590;2023-09-30T00:11:29;100749.50;;;16.43;76.81
80945;BME280;70400;50.934;11.590;2023-09-30T00:12:20;100750.88;;;16.63;75.71
80945;BME280;70400;50.934;11.590;2023-09-30T00:13:12;100744.25;;;16.59;75.83
80945;BME280;70400;50.934;11.590;2023-09-30T00:14:02;100755.03;;;16.58;75.54
80945;BME280;70400;50.934;11.590;2023-09-30T00:14:53;100751.00;;;16.45;74.46
80945;BME280;70400;50.934;11.590;2023-09-30T00:15:44;100758.19;;;16.45;75.38
80945;BME280;70400;50.934;11.590;2023-09-30T00:16:35;100756.00;;;16.48;76.01
80945;BME280;70400;50.934;11.590;2023-09-30T00:17:26;100755.19;;;16.48;75.35
80945;BME280;70400;50.934;11.590;2023-09-30T00:18:17;100752.97;;;16.35;75.19
80945;BME280;70400;50.934;11.590;2023-09-30T00:19:08;100758.78;;;16.31;75.29
80945;BME280;70400;50.934;11.590;2023-09-30T00:20:00;100755.50;;;16.37;74.49
80945;BME280;70400;50.934;11.590;2023-09-30T00:20:51;100759.81;;;16.38;74.78
80945;BME280;70400;50.934;11.590;2023-09-30T00:21:42;100752.16;;;16.43;74.32
80945;BME280;70400;50.934;11.590;2023-09-30T00:22:33;100748.00;;;16.40;75.06
80945;BME280;70400;50.934;11.590;2023-09-30T00:23:23;100747.84;;;16.34;74.90
80945;BME280;70400;50.934;11.590;2023-09-30T00:24:14;100748.47;;;16.27;75.04
80945;BME280;70400;50.934;11.590;2023-09-30T00:25:06;100754.47;;;16.38;75.53
80945;BME280;70400;50.934;11.590;2023-09-30T00:25:57;100752.34;;;16.41;75.23
80945;BME280;70400;50.934;11.590;2023-09-30T00:26:48;100750.78;;;16.31;75.43
80945;BME280;70400;50.934;11.590;2023-09-30T00:27:40;100752.00;;;16.36;74.81
80945;BME280;70400;50.934;11.590;2023-09-30T00:28:31;100753.19;;;16.42;74.86
80945;BME280;70400;50.934;11.590;2023-09-30T00:29:22;100752.28;;;16.25;74.90
80945;BME280;70400;50.934;11.590;2023-09-30T00:30:13;100749.28;;;16.20;75.20
80945;BME280;70400;50.934;11.590;2023-09-30T00:31:07;100752.28;;;16.25;76.27
80945;BME280;70400;50.934;11.590;2023-09-30T00:32:00;100752.50;;;16.32;75.50
80945;BME280;70400;50.934;11.590;2023-09-30T00:32:53;100759.59;;;16.23;74.80
80945;BME280;70400;50.934;11.590;2023-09-30T00:33:44;100750.31;;;16.27;74.83
80945;BME280;70400;50.934;11.590;2023-09-30T00:34:35;100753.78;;;16.27;74.79
80945;BME280;70400;50.934;11.590;2023-09-30T00:35:26;100758.75;;;16.22;75.47
80945;BME280;70400;50.934;11.590;2023-09-30T00:36:17;100753.47;;;16.31;74.97
80945;BME280;70400;50.934;11.590;2023-09-30T00:37:08;100752.31;;;16.33;75.83
80945;BME280;70400;50.934;11.590;2023-09-30T00:37:59;100753.28;;;16.24;75.52
80945;BME280;70400;50.934;11.590;2023-09-30T00:38:50;100753.97;;;16.26;74.73
80945;BME280;70400;50.934;11.590;2023-09-30T00:39:41;100762.91;;;16.17;74.86
80945;BME280;70400;50.934;11.590;2023-09-30T00:40:33;100762.59;;;16.20;74.37
80945;BME280;70400;50.934;11.590;2023-09-30T00:41:25;100773.69;;;16.15;75.07
80945;BME280;70400;50.934;11.590;2023-09-30T00:42:16;100766.72;;;16.14;74.82
80945;BME280;70400;50.934;11.590;2023-09-30T00:43:18;100772.38;;;16.11;75.11
80945;BME280;70400;50.934;11.590;2023-09-30T00:44:08;100764.03;;;16.06;75.08
80945;BME280;70400;50.934;11.590;2023-09-30T00:44:59;100768.88;;;16.11;74.48
80945;BME280;70400;50.934;11.590;2023-09-30T00:46:02;100771.72;;;16.17;75.07
80945;BME280;70400;50.934;11.590;2023-09-30T00:46:57;100768.09;;;16.26;74.20
80945;BME280;70400;50.934;11.590;2023-09-30T00:47:48;100771.09;;;16.23;73.23
80945;BME280;70400;50.934;11.590;2023-09-30T00:48:39;100771.72;;;16.17;73.92
80945;BME280;70400;50.934;11.590;2023-09-30T00:49:31;100776.06;;;16.18;74.25
80945;BME280;70400;50.934;11.590;2023-09-30T00:50:22;100778.38;;;16.13;73.90
80945;BME280;70400;50.934;11.590;2023-09-30T00:51:13;100768.09;;;16.18;74.04
80945;BME280;70400;50.934;11.590;2023-09-30T00:52:04;100776.09;;;16.26;74.25
80945;BME280;70400;50.934;11.590;2023-09-30T00:52:55;100779.03;;;16.15;72.90
80945;BME280;70400;50.934;11.590;2023-09-30T00:53:47;100776.22;;;16.17;73.25
80945;BME280;70400;50.934;11.590;2023-09-30T00:54:38;100785.56;;;16.21;74.66
80945;BME280;70400;50.934;11.590;2023-09-30T00:55:30;100790.66;;;16.14;73.23
80945;BME280;70400;50.934;11.590;2023-09-30T00:56:23;100784.63;;;16.04;73.25
80945;BME280;70400;50.934;11.590;2023-09-30T00:57:15;100789.00;;;16.13;73.94
80945;BME280;70400;50.934;11.590;2023-09-30T00:58:07;100793.19;;;16.16;73.41
80945;BME280;70400;50.934;11.590;2023-09-30T00:58:58;100789.72;;;16.23;72.62
80945;BME280;70400;50.934;11.590;2023-09-30T00:59:50;100788.41;;;16.36;72.44
80945;BME280;70400;50.934;11.590;2023-09-30T01:00:41;100780.59;;;16.26;72.33
80945;BME280;70400;50.934;11.590;2023-09-30T01:01:33;100792.53;;;16.22;72.25
80945;BME280;70400;50.934;11.590;2023-09-30T01:02:24;100781.28;;;16.36;73.20
80945;BME280;70400;50.934;11.590;2023-09-30T01:03:15;100781.22;;;16.20;71.54
80945;BME280;70400;50.934;11.590;2023-09-30T01:04:06;100778.56;;;16.28;73.20
80945;BME280;70400;50.934;11.590;2023-09-30T01:04:58;100790.38;;;16.25;72.58
80945;BME280;70400;50.934;11.590;2023-09-30T01:05:49;100787.88;;;16.24;72.90
80945;BME280;70400;50.934;11.590;2023-09-30T01:06:40;100788.38;;;16.27;73.07
80945;BME280;70400;50.934;11.590;2023-09-30T01:07:33;100788.06;;;16.31;72.32
80945;BME280;70400;50.934;11.590;2023-09-30T01:08:24;100796.69;;;16.24;72.17
80945;BME280;70400;50.934;11.590;2023-09-30T01:09:16;100787.69;;;16.17;72.56
80945;BME280;70400;50.934;11.590;2023-09-30T01:10:08;100793.34;;;16.14;72.36
80945;BME280;70400;50.934;11.590;2023-09-30T01:10:59;100789.19;;;16.20;72.47
80945;BME280;70400;50.934;11.590;2023-09-30T01:11:51;100798.50;;;16.16;72.37
80945;BME280;70400;50.934;11.590;2023-09-30T01:12:42;100794.19;;;16.23;72.63
80945;BME280;70400;50.934;11.590;2023-09-30T01:13:34;100793.69;;;16.19;71.73
80945;BME280;70400;50.934;11.590;2023-09-30T01:14:32;100799.34;;;16.16;71.73
80945;BME280;70400;50.934;11.590;2023-09-30T01:15:25;100789.03;;;16.21;71.01
80945;BME280;70400;50.934;11.590;2023-09-30T01:16:16;100798.53;;;16.24;71.69
80945;BME280;70400;50.934;11.590;2023-09-30T01:17:07;100801.81;;;16.18;72.03
80945;BME280;70400;50.934;11.590;2023-09-30T01:18:04;100799.00;;;16.19;70.47
80945;BME280;70400;50.934;11.590;2023-09-30T01:18:55;100799.69;;;16.21;69.60
80945;BME280;70400;50.934;11.590;2023-09-30T01:19:46;100799.47;;;16.15;70.53
80945;BME280;70400;50.934;11.590;2023-09-30T01:20:37;100806.59;;;16.06;71.42
80945;BME280;70400;50.934;11.590;2023-09-30T01:21:28;100806.75;;;16.04;71.04
80945;BME280;70400;50.934;11.590;2023-09-30T01:22:19;100801.41;;;15.96;71.27
80945;BME280;70400;50.934;11.590;2023-09-30T01:23:10;100809.69;;;15.93;71.14
80945;BME280;70400;50.934;11.590;2023-09-30T01:24:03;100812.97;;;15.87;70.76
80945;BME280;70400;50.934;11.590;2023-09-30T01:24:53;100805.84;;;15.88;71.09
80945;BME280;70400;50.934;11.590;2023-09-30T01:25:44;100810.53;;;15.94;71.81
80945;BME280;70400;50.934;11.590;2023-09-30T01:26:35;100812.50;;;15.92;71.46
80945;BME280;70400;50.934;11.590;2023-09-30T01:27:26;100818.81;;;15.91;71.34
80945;BME280;70400;50.934;11.590;2023-09-30T01:28:17;100813.88;;;15.96;72.26
80945;BME280;70400;50.934;11.590;2023-09-30T01:29:08;100816.63;;;15.86;70.94
80945;BME280;70400;50.934;11.590;2023-09-30T01:30:02;100819.00;;;15.97;70.61
80945;BME280;70400;50.934;11.590;2023-09-30T01:30:55;100830.34;;;15.99;70.71
80945;BME280;70400;50.934;11.590;2023-09-30T01:31:46;100819.56;;;16.01;70.73
80945;BME280;70400;50.934;11.590;2023-09-30T01:32:40;100821.13;;;15.86;70.60
80945;BME280;70400;50.934;11.590;2023-09-30T01:33:32;100823.81;;;15.94;72.14
80945;BME280;70400;50.934;11.590;2023-09-30T01:34:25;100826.53;;;16.02;71.43
80945;BME280;70400;50.934;11.590;2023-09-30T01:35:17;100825.44;;;15.87;71.13
80945;BME280;70400;50.934;11.590;2023-09-30T01:36:08;100825.63;;;15.85;71.48
80945;BME280;70400;50.934;11.590;2023-09-30T01:36:59;100821.72;;;15.79;70.97
80945;BME280;70400;50.934;11.590;2023-09-30T01:37:50;100822.69;;;15.96;70.74
80945;BME280;70400;50.934;11.590;2023-09-30T01:38:41;100819.66;;;15.91;70.65
80945;BME280;70400;50.934;11.590;2023-09-30T01:39:32;100818.28;;;15.87;69.96
80945;BME280;70400;50.934;11.590;2023-09-30T01:40:23;100818.59;;;15.84;70.95
80945;BME280;70400;50.934;11.590;2023-09-30T01:41:14;100823.47;;;15.89;71.33
80945;BME280;70400;50.934;11.590;2023-09-30T01:42:05;100818.47;;;15.86;70.55
80945;BME280;70400;50.934;11.590;2023-09-30T01:42:56;100822.47;;;15.90;70.21
80945;BME280;70400;50.934;11.590;2023-09-30T01:43:47;100824.28;;;15.89;71.21
80945;BME280;70400;50.934;11.590;2023-09-30T01:44:39;100818.16;;;15.89;72.52
80945;BME280;70400;50.934;11.590;2023-09-30T01:45:30;100828.47;;;15.92;71.55
80945;BME280;70400;50.934;11.590;2023-09-30T01:46:21;100826.16;;;15.97;69.93
80945;BME280;70400;50.934;11.590;2023-09-30T01:47:13;100831.16;;;16.00;69.79
80945;BME280;70400;50.934;11.590;2023-09-30T01:48:04;100831.13;;;15.92;70.23
80945;BME280;70400;50.934;11.590;2023-09-30T01:48:56;100838.69;;;15.78;70.53
80945;BME280;70400;50.934;11.590;2023-09-30T01:49:47;100833.88;;;15.82;71.82
80945;BME280;70400;50.934;11.590;2023-09-30T01:50:39;100836.75;;;15.89;71.63
80945;BME280;70400;50.934;11.590;2023-09-30T01:51:30;100841.72;;;15.83;72.02
80945;BME280;70400;50.934;11.590;2023-09-30T01:52:21;100845.03;;;15.77;72.45
80945;BME280;70400;50.934;11.590;2023-09-30T01:53:11;100845.63;;;15.71;72.39
80945;BME280;70400;50.934;11.590;2023-09-30T01:54:02;100837.31;;;15.74;72.89
80945;BME280;70400;50.934;11.590;2023-09-30T01:54:53;100850.34;;;15.77;72.35
80945;BME280;70400;50.934;11.590;2023-09-30T01:55:45;100846.34;;;15.81;72.67
80945;BME280;70400;50.934;11.590;2023-09-30T01:56:36;100844.88;;;15.87;71.32
80945;BME280;70400;50.934;11.590;2023-09-30T01:57:27;100845.94;;;15.94;71.14
80945;BME280;70400;50.934;11.590;2023-09-30T01:58:18;100845.75;;;15.88;70.92
80945;BME280;70400;50.934;11.590;2023-09-30T01:59:09;100854.28;;;15.73;71.29
80945;BME280;70400;50.934;11.590;2023-09-30T02:00:00;100853.81;;;15.60;72.01
80945;BME280;70400;50.934;11.590;2023-09-30T02:00:51;100845.47;;;15.55;72.41
80945;BME280;70400;50.934;11.590;2023-09-30T02:01:42;100851.25;;;15.50;72.93
80945;BME280;70400;50.934;11.590;2023-09-30T02:02:33;100852.38;;;15.66;74.02
80945;BME280;70400;50.934;11.590;2023-09-30T02:03:25;100856.94;;;15.73;73.85
80945;BME280;70400;50.934;11.590;2023-09-30T02:04:15;100858.13;;;15.79;72.67
80945;BME280;70400;50.934;11.590;2023-09-30T02:05:08;100858.84;;;15.63;72.48
80945;BME280;70400;50.934;11.590;2023-09-30T02:05:59;100859.75;;;15.72;72.47
80945;BME280;70400;50.934;11.590;2023-09-30T02:06:50;100859.34;;;15.67;72.48
80945;BME280;70400;50.934;11.590;2023-09-30T02:07:41;100859.81;;;15.62;72.86
80945;BME280;70400;50.934;11.590;2023-09-30T02:08:33;100864.91;;;15.55;73.10
80945;BME280;70400;50.934;11.590;2023-09-30T02:09:26;100864.66;;;15.67;72.62
80945;BME280;70400;50.934;11.590;2023-09-30T02:10:17;100870.25;;;15.73;71.57
80945;BME280;70400;50.934;11.590;2023-09-30T02:11:11;100862.19;;;15.65;72.48
80945;BME280;70400;50.934;11.590;2023-09-30T02:12:04;100862.78;;;15.59;72.29
80945;BME280;70400;50.934;11.590;2023-09-30T02:12:55;100866.13;;;15.61;71.99
80945;BME280;70400;50.934;11.590;2023-09-30T02:13:46;100860.81;;;15.61;72.81
80945;BME280;70400;50.934;11.590;2023-09-30T02:14:37;100857.78;;;15.56;73.46
80945;BME280;70400;50.934;11.590;2023-09-30T02:15:29;100863.72;;;15.50;73.28
80945;BME280;70400;50.934;11.590;2023-09-30T02:16:21;100863.59;;;15.59;73.13
80945;BME280;70400;50.934;11.590;2023-09-30T02:17:13;100862.09;;;15.57;73.18
80945;BME280;70400;50.934;11.590;2023-09-30T02:18:04;100870.56;;;15.52;73.52
80945;BME280;70400;50.934;11.590;2023-09-30T02:18:55;100869.19;;;15.48;73.36
80945;BME280;70400;50.934;11.590;2023-09-30T02:19:46;100866.97;;;15.44;73.55
80945;BME280;70400;50.934;11.590;2023-09-30T02:20:37;100864.91;;;15.55;74.51
80945;BME280;70400;50.934;11.590;2023-09-30T02:21:32;100867.13;;;15.60;74.31
80945;BME280;70400;50.934;11.590;2023-09-30T02:22:23;100869.47;;;15.63;73.73
80945;BME280;70400;50.934;11.590;2023-09-30T02:23:15;100870.75;;;15.59;73.17
80945;BME280;70400;50.934;11.590;2023-09-30T02:24:09;100873.34;;;15.51;72.90
80945;BME280;70400;50.934;11.590;2023-09-30T02:25:00;100874.25;;;15.59;73.44
80945;BME280;70400;50.934;11.590;2023-09-30T02:25:51;100875.31;;;15.49;72.51
80945;BME280;70400;50.934;11.590;2023-09-30T02:26:42;100880.31;;;15.52;73.45
80945;BME280;70400;50.934;11.590;2023-09-30T02:27:34;100881.09;;;15.44;72.33
80945;BME280;70400;50.934;11.590;2023-09-30T02:28:25;100879.66;;;15.50;72.77
80945;BME280;70400;50.934;11.590;2023-09-30T02:29:15;100885.88;;;15.40;72.66
80945;BME280;70400;50.934;11.590;2023-09-30T02:30:08;100890.69;;;15.37;73.04
80945;BME280;70400;50.934;11.590;2023-09-30T02:31:01;100889.44;;;15.31;73.04
80945;BME280;70400;50.934;11.590;2023-09-30T02:31:51;100890.91;;;15.44;73.50
80945;BME280;70400;50.934;11.590;2023-09-30T02:32:45;100889.16;;;15.34;73.37
80945;BME280;70400;50.934;11.590;2023-09-30T02:33:37;100890.91;;;15.26;73.14
80945;BME280;70400;50.934;11.590;2023-09-30T02:34:30;100888.22;;;15.26;73.72
80945;BME280;70400;50.934;11.590;2023-09-30T02:35:21;100898.34;;;15.22;73.45
80945;BME280;70400;50.934;11.590;2023-09-30T02:36:12;100894.63;;;15.33;73.17
80945;BME280;70400;50.934;11.590;2023-09-30T02:37:04;100893.84;;;15.40;72.77
80945;BME280;70400;50.934;11.590;2023-09-30T02:37:55;100898.78;;;15.35;72.59
80945;BME280;70400;50.934;11.590;2023-09-30T02:38:45;100897.81;;;15.36;72.95
80945;BME280;70400;50.934;11.590;2023-09-30T02:39:37;100905.00;;;15.26;73.15
80945;BME280;70400;50.934;11.590;2023-09-30T02:40:28;100902.34;;;15.44;73.41
80945;BME280;70400;50.934;11.590;2023-09-30T02:41:19;100903.22;;;15.45;72.69
80945;BME280;70400;50.934;11.590;2023-09-30T02:42:10;100899.88;;;15.43;71.64
80945;BME280;70400;50.934;11.590;2023-09-30T02:43:01;100901.59;;;15.34;71.80
80945;BME280;70400;50.934;11.590;2023-09-30T02:43:52;100904.88;;;15.28;72.44
80945;BME280;70400;50.934;11.590;2023-09-30T02:44:43;100910.94;;;15.20;72.37
80945;BME280;70400;50.934;11.590;2023-09-30T02:45:34;100911.06;;;15.18;72.37
80945;BME280;70400;50.934;11.590;2023-09-30T02:46:24;100909.72;;;15.14;72.46
80945;BME280;70400;50.934;11.590;2023-09-30T02:47:18;100903.19;;;15.09;72.21
80945;BME280;70400;50.934;11.590;2023-09-30T02:48:09;100904.84;;;15.10;71.29
80945;BME280;70400;50.934;11.590;2023-09-30T02:49:03;100901.13;;;15.03;73.11
80945;BME280;70400;50.934;11.590;2023-09-30T02:49:57;100897.47;;;14.86;73.15
80945;BME280;70400;50.934;11.590;2023-09-30T02:50:48;100899.69;;;14.81;72.95
80945;BME280;70400;50.934;11.590;2023-09-30T02:51:39;100914.22;;;14.86;73.79
80945;BME280;70400;50.934;11.590;2023-09-30T02:52:30;100903.75;;;14.85;73.29
80945;BME280;70400;50.934;11.590;2023-09-30T02:53:22;100910.06;;;14.84;73.66
80945;BME280;70400;50.934;11.590;2023-09-30T02:54:15;100915.81;;;14.79;72.79
80945;BME280;70400;50.934;11.590;2023-09-30T02:55:11;100921.28;;;14.68;72.65
80945;BME280;70400;50.934;11.590;2023-09-30T02:56:02;100914.00;;;14.70;73.42
80945;BME280;70400;50.934;11.590;2023-09-30T02:56:54;100919.03;;;14.73;73.17
80945;BME280;70400;50.934;11.590;2023-09-30T02:57:45;100918.50;;;14.69;73.61
80945;BME280;70400;50.934;11.590;2023-09-30T02:58:37;100927.28;;;14.70;72.81
80945;BME280;70400;50.934;11.590;2023-09-30T02:59:29;100924.25;;;14.65;73.10
80945;BME280;70400;50.934;11.590;2023-09-30T03:00:21;100924.63;;;14.70;72.67
80945;BME280;70400;50.934;11.590;2023-09-30T03:01:17;100921.88;;;14.62;71.86
80945;BME280;70400;50.934;11.590;2023-09-30T03:02:09;100924.63;;;14.70;72.37
80945;BME280;70400;50.934;11.590;2023-09-30T03:03:01;100918.41;;;14.89;73.68
80945;BME280;70400;50.934;11.590;2023-09-30T03:03:52;100924.53;;;14.62;71.99
80945;BME280;70400;50.934;11.590;2023-09-30T03:04:44;100923.00;;;14.49;72.72
80945;BME280;70400;50.934;11.590;2023-09-30T03:05:35;100929.59;;;14.55;72.21
80945;BME280;70400;50.934;11.590;2023-09-30T03:06:27;100920.34;;;14.49;73.06
80945;BME280;70400;50.934;11.590;2023-09-30T03:07:18;100928.31;;;14.59;73.27
80945;BME280;70400;50.934;11.590;2023-09-30T03:08:10;100928.91;;;14.53;73.15
80945;BME280;70400;50.934;11.590;2023-09-30T03:09:01;100924.84;;;14.59;72.79
80945;BME280;70400;50.934;11.590;2023-09-30T03:09:53;100923.19;;;14.48;71.92
80945;BME280;70400;50.934;11.590;2023-09-30T03:10:45;100924.53;;;14.62;72.68
80945;BME280;70400;50.934;11.590;2023-09-30T03:11:36;100921.59;;;14.65;73.10
80945;BME280;70400;50.934;11.590;2023-09-30T03:12:27;100929.84;;;14.52;72.27
80945;BME280;70400;50.934;11.590;2023-09-30T03:13:18;100927.50;;;14.49;72.79
80945;BME280;70400;50.934;11.590;2023-09-30T03:14:12;100929.16;;;14.60;72.73
80945;BME280;70400;50.934;11.590;2023-09-30T03:15:04;100938.94;;;14.49;72.30
80945;BME280;70400;50.934;11.590;2023-09-30T03:15:55;100933.94;;;14.46;73.51
80945;BME280;70400;50.934;11.590;2023-09-30T03:16:47;100934.22;;;14.43;73.11
80945;BME280;70400;50.934;11.590;2023-09-30T03:17:38;100937.13;;;14.50;72.56
80945;BME280;70400;50.934;11.590;2023-09-30T03:18:30;100942.19;;;14.43;73.45
80945;BME280;70400;50.934;11.590;2023-09-30T03:19:21;100949.56;;;14.40;72.97
80945;BME280;70400;50.934;11.590;2023-09-30T03:20:12;100943.75;;;14.36;72.96
80945;BME280;70400;50.934;11.590;2023-09-30T03:21:13;100948.78;;;14.29;73.34
80945;BME280;70400;50.934;11.590;2023-09-30T03:22:04;100955.34;;;14.35;73.61
80945;BME280;70400;50.934;11.590;2023-09-30T03:23:02;100946.56;;;14.25;73.39
80945;BME280;70400;50.934;11.590;2023-09-30T03:23:55;100951.88;;;14.25;73.73
80945;BME280;70400;50.934;11.590;2023-09-30T03:24:46;100939.00;;;14.30;74.88
80945;BME280;70400;50.934;11.590;2023-09-30T03:25:38;100948.19;;;14.45;74.56
80945;BME280;70400;50.934;11.590;2023-09-30T03:26:29;100945.94;;;14.50;73.97
80945;BME280;70400;50.934;11.590;2023-09-30T03:27:20;100950.44;;;14.40;72.78
80945;BME280;70400;50.934;11.590;2023-09-30T03:28:11;100939.81;;;14.40;72.23
80945;BME280;70400;50.934;11.590;2023-09-30T03:29:01;100945.94;;;14.50;71.53
80945;BME280;70400;50.934;11.590;2023-09-30T03:29:54;100940.63;;;14.50;72.75
80945;BME280;70400;50.934;11.590;2023-09-30T03:30:45;100943.44;;;14.39;72.68
80945;BME280;70400;50.934;11.590;2023-09-30T03:31:36;100942.34;;;14.32;73.39
80945;BME280;70400;50.934;11.590;2023-09-30T03:32:27;100948.13;;;14.18;73.12
80945;BME280;70400;50.934;11.590;2023-09-30T03:33:20;100954.25;;;14.28;74.02
80945;BME280;70400;50.934;11.590;2023-09-30T03:34:11;100949.66;;;14.20;73.04
80945;BME280;70400;50.934;11.590;2023-09-30T03:35:02;100952.13;;;14.22;73.40
80945;BME280;70400;50.934;11.590;2023-09-30T03:35:56;100945.84;;;14.32;74.58
80945;BME280;70400;50.934;11.590;2023-09-30T03:36:49;100952.00;;;14.23;73.12
80945;BME280;70400;50.934;11.590;2023-09-30T03:37:39;100944.72;;;14.35;73.39
80945;BME280;70400;50.934;11.590;2023-09-30T03:38:31;100954.16;;;14.47;73.99
80945;BME280;70400;50.934;11.590;2023-09-30T03:39:23;100953.63;;;14.44;72.77
80945;BME280;70400;50.934;11.590;2023-09-30T03:40:17;100962.22;;;14.18;72.01
80945;BME280;70400;50.934;11.590;2023-09-30T03:41:18;100962.63;;;14.14;72.73
80945;BME280;70400;50.934;11.590;2023-09-30T03:42:10;100968.66;;;14.06;72.28
80945;BME280;70400;50.934;11.590;2023-09-30T03:43:04;100960.97;;;14.22;73.16
80945;BME280;70400;50.934;11.590;2023-09-30T03:43:56;100972.84;;;14.08;72.42
80945;BME280;70400;50.934;11.590;2023-09-30T03:44:48;100966.13;;;14.14;71.66
80945;BME280;70400;50.934;11.590;2023-09-30T03:45:40;100969.94;;;14.02;72.34
80945;BME280;70400;50.934;11.590;2023-09-30T03:46:31;100970.19;;;13.99;72.68
80945;BME280;70400;50.934;11.590;2023-09-30T03:47:22;100962.50;;;13.96;73.10
80945;BME280;70400;50.934;11.590;2023-09-30T03:48:13;100963.09;;;13.99;72.81
80945;BME280;70400;50.934;11.590;2023-09-30T03:49:04;100957.91;;;13.88;73.45
80945;BME280;70400;50.934;11.590;2023-09-30T03:49:55;100961.28;;;13.90;73.37
80945;BME280;70400;50.934;11.590;2023-09-30T03:50:46;100963.63;;;13.93;73.35
80945;BME280;70400;50.934;11.590;2023-09-30T03:51:37;100965.59;;;13.81;73.29
80945;BME280;70400;50.934;11.590;2023-09-30T03:52:28;100958.91;;;13.87;74.23
80945;BME280;70400;50.934;11.590;2023-09-30T03:53:19;100961.41;;;13.88;73.36
80945;BME280;70400;50.934;11.590;2023-09-30T03:54:10;100956.09;;;13.88;72.56
80945;BME280;70400;50.934;11.590;2023-09-30T03:55:02;100955.56;;;13.85;73.15
80945;BME280;70400;50.934;11.590;2023-09-30T03:55:55;100948.13;;;13.88;73.03
80945;BME280;70400;50.934;11.590;2023-09-30T03:56:47;100951.91;;;13.86;72.60
80945;BME280;70400;50.934;11.590;2023-09-30T03:57:38;100942.84;;;13.88;73.12
80945;BME280;70400;50.934;11.590;2023-09-30T03:58:29;100945.38;;;13.90;72.28
80945;BME280;70400;50.934;11.590;2023-09-30T03:59:20;100945.25;;;13.82;72.53
80945;BME280;70400;50.934;11.590;2023-09-30T04:00:11;100938.41;;;13.79;72.50
80945;BME280;70400;50.934;11.590;2023-09-30T04:01:11;100926.09;;;13.78;72.42
80945;BME280;70400;50.934;11.590;2023-09-30T04:02:02;100933.34;;;13.76;72.73
80945;BME280;70400;50.934;11.590;2023-09-30T04:02:52;100936.28;;;13.83;72.02
80945;BME280;70400;50.934;11.590;2023-09-30T04:03:49;100926.81;;;13.71;72.24
80945;BME280;70400;50.934;11.590;2023-09-30T04:04:40;100936.72;;;13.68;71.87
80945;BME280;70400;50.934;11.590;2023-09-30T04:05:31;100938.81;;;13.65;73.12
80945;BME280;70400;50.934;11.590;2023-09-30T04:06:27;100946.03;;;13.53;72.79
80945;BME280;70400;50.934;11.590;2023-09-30T04:07:19;100945.63;;;13.58;74.49
80945;BME280;70400;50.934;11.590;2023-09-30T04:08:12;100948.00;;;13.61;73.70
80945;BME280;70400;50.934;11.590;2023-09-30T04:09:04;100951.94;;;13.66;73.20
80945;BME280;70400;50.934;11.590;2023-09-30T04:10:00;100953.72;;;13.76;73.38
80945;BME280;70400;50.934;11.590;2023-09-30T04:10:55;100955.25;;;13.68;73.09
80945;BME280;70400;50.934;11.590;2023-09-30T04:11:46;100955.97;;;13.71;72.57
80945;BME280;70400;50.934;11.590;2023-09-30T04:12:37;100957.06;;;13.58;73.20
80945;BME280;70400;50.934;11.590;2023-09-30T04:13:28;100964.19;;;13.67;73.04
80945;BME280;70400;50.934;11.590;2023-09-30T04:14:19;100954.69;;;13.55;72.38
80945;BME280;70400;50.934;11.590;2023-09-30T04:15:11;100966.16;;;13.75;73.69
80945;BME280;70400;50.934;11.590;2023-09-30T04:16:03;100966.03;;;13.77;72.69
80945;BME280;70400;50.934;11.590;2023-09-30T04:16:54;100966.16;;;13.75;73.03
80945;BME280;70400;50.934;11.590;2023-09-30T04:17:45;100967.66;;;13.58;72.86
80945;BME280;70400;50.934;11.590;2023-09-30T04:18:36;100965.88;;;13.59;73.18
80945;BME280;70400;50.934;11.590;2023-09-30T04:19:27;100970.31;;;13.58;72.65
80945;BME280;70400;50.934;11.590;2023-09-30T04:20:21;100961.25;;;13.61;72.54
80945;BME280;70400;50.934;11.590;2023-09-30T04:21:14;100959.72;;;13.58;71.95
80945;BME280;70400;50.934;11.590;2023-09-30T04:22:05;100968.50;;;13.68;73.22
80945;BME280;70400;50.934;11.590;2023-09-30T04:22:56;100971.44;;;13.65;72.46
80945;BME280;70400;50.934;11.590;2023-09-30T04:23:48;100972.03;;;13.69;73.42
80945;BME280;70400;50.934;11.590;2023-09-30T04:24:40;100974.53;;;13.71;72.91
80945;BME280;70400;50.934;11.590;2023-09-30T04:25:30;100984.97;;;13.62;72.14
80945;BME280;70400;50.934;11.590;2023-09-30T04:26:22;100972.13;;;13.48;72.28
80945;BME280;70400;50.934;11.590;2023-09-30T04:27:13;100982.19;;;13.54;72.19